createdAt,value
2018-04-01T00:01:09.676Z,14.57
2018-04-01T00:03:36.863Z,14.57
2018-04-01T00:06:03.369Z,14.64
2018-04-01T00:08:29.840Z,14.71
2018-04-01T00:10:56.733Z,14.75
2018-04-01T00:13:23.176Z,14.99
2018-04-01T00:15:49.617Z,14.86
2018-04-01T00:18:16.060Z,14.78
2018-04-01T00:20:42.560Z,14.76
2018-04-01T00:23:10.130Z,14.46
2018-04-01T00:25:37.349Z,14.44
2018-04-01T00:28:03.874Z,14.93
2018-04-01T00:30:30.352Z,14.72
2018-04-01T00:32:56.907Z,14.76
2018-04-01T00:35:23.327Z,14.52
2018-04-01T00:37:49.880Z,14.34
2018-04-01T00:40:16.414Z,14.37
2018-04-01T00:42:43.930Z,14.22
2018-04-01T00:45:10.427Z,13.67
2018-04-01T00:47:36.858Z,13.53
2018-04-01T00:50:03.283Z,13.46
2018-04-01T00:52:29.898Z,13.70
2018-04-01T00:54:56.387Z,12.91
2018-04-01T00:57:22.844Z,12.94
2018-04-01T00:59:49.257Z,12.62
2018-04-01T01:02:15.798Z,12.12
2018-04-01T01:04:42.270Z,12.49
2018-04-01T01:07:08.788Z,12.86
2018-04-01T01:09:35.295Z,14.84
2018-04-01T01:12:01.901Z,14.79
2018-04-01T01:14:28.437Z,14.81
2018-04-01T01:16:54.973Z,15.24
2018-04-01T01:19:21.516Z,15.15
2018-04-01T01:21:51.154Z,15.00
2018-04-01T01:24:17.645Z,14.76
2018-04-01T01:26:44.054Z,14.85
2018-04-01T01:29:11.264Z,15.09
2018-04-01T01:31:37.951Z,15.08
2018-04-01T01:34:04.378Z,14.95
2018-04-01T01:36:30.843Z,14.94
2018-04-01T01:38:57.360Z,14.78
2018-04-01T01:41:24.969Z,14.95
2018-04-01T01:43:51.437Z,14.75
2018-04-01T01:46:17.864Z,14.83
2018-04-01T01:48:44.303Z,14.92
2018-04-01T01:51:10.962Z,14.90
2018-04-01T01:53:37.529Z,14.89
2018-04-01T01:56:04.035Z,14.91
2018-04-01T01:58:30.470Z,14.76
2018-04-01T02:01:01.558Z,14.77
2018-04-01T02:03:28.069Z,14.67
2018-04-01T02:05:54.615Z,14.89
2018-04-01T02:08:21.097Z,14.78
2018-04-01T02:10:47.545Z,14.78
2018-04-01T02:13:14.005Z,14.88
2018-04-01T02:15:40.413Z,14.80
2018-04-01T02:18:06.847Z,14.77
2018-04-01T02:20:33.553Z,14.79
2018-04-01T02:23:00.025Z,14.66
2018-04-01T02:25:26.570Z,14.99
2018-04-01T02:27:53.098Z,14.97
2018-04-01T02:30:19.643Z,15.07
2018-04-01T02:32:47.242Z,15.13
2018-04-01T02:35:13.730Z,15.18
2018-04-01T02:37:40.257Z,15.08
2018-04-01T02:40:06.750Z,14.98
2018-04-01T02:42:33.233Z,15.23
2018-04-01T02:45:00.421Z,15.38
2018-04-01T02:47:26.931Z,15.35
2018-04-01T02:49:53.730Z,15.22
2018-04-01T02:52:21.274Z,15.13
2018-04-01T02:54:47.775Z,15.17
2018-04-01T02:57:14.275Z,15.26
2018-04-01T02:59:40.786Z,15.40
2018-04-01T03:02:07.261Z,15.34
2018-04-01T03:04:33.850Z,15.10
2018-04-01T03:07:00.268Z,15.31
2018-04-01T03:09:26.835Z,15.14
2018-04-01T03:11:53.509Z,15.21
2018-04-01T03:14:19.934Z,15.09
2018-04-01T03:16:46.358Z,15.01
2018-04-01T03:19:12.869Z,15.11
2018-04-01T03:21:39.505Z,15.20
2018-04-01T03:24:05.998Z,15.25
2018-04-01T03:26:32.783Z,15.17
2018-04-01T03:28:59.226Z,15.13
2018-04-01T03:31:25.736Z,15.01
2018-04-01T03:33:52.611Z,14.95
2018-04-01T03:36:19.160Z,15.03
2018-04-01T03:38:45.710Z,14.92
2018-04-01T03:41:12.242Z,14.92
2018-04-01T03:43:38.654Z,15.19
2018-04-01T03:46:05.118Z,15.08
2018-04-01T03:48:31.649Z,15.48
2018-04-01T03:50:58.221Z,15.41
2018-04-01T03:53:24.783Z,15.31
2018-04-01T03:55:51.203Z,15.39
2018-04-01T03:58:17.619Z,15.22
2018-04-01T04:00:47.591Z,15.32
2018-04-01T04:03:14.047Z,15.27
2018-04-01T04:05:41.294Z,15.25
2018-04-01T04:08:07.781Z,15.59
2018-04-01T04:10:37.689Z,15.56
2018-04-01T04:13:04.206Z,15.61
2018-04-01T04:15:30.714Z,15.82
2018-04-01T04:17:57.145Z,15.67
2018-04-01T04:20:26.741Z,15.66
2018-04-01T04:22:53.173Z,15.65
2018-04-01T04:25:19.634Z,15.94
2018-04-01T04:27:46.150Z,15.84
2018-04-01T04:30:12.747Z,15.89
2018-04-01T04:32:39.270Z,15.78
2018-04-01T04:35:05.790Z,15.88
2018-04-01T04:37:32.172Z,15.76
2018-04-01T04:39:58.607Z,15.96
2018-04-01T04:42:28.458Z,15.82
2018-04-01T04:44:54.989Z,15.90
2018-04-01T04:47:21.366Z,15.85
2018-04-01T04:49:47.850Z,15.86
2018-04-01T04:52:17.511Z,15.75
2018-04-01T04:54:43.958Z,15.80
2018-04-01T04:57:10.351Z,15.75
2018-04-01T04:59:36.862Z,15.66
2018-04-01T05:02:06.845Z,15.71
2018-04-01T05:04:33.342Z,15.71
2018-04-01T05:07:01.470Z,15.87
2018-04-01T05:09:27.985Z,15.82
2018-04-01T05:11:57.930Z,15.82
2018-04-01T05:14:25.141Z,15.84
2018-04-01T05:16:51.593Z,15.76
2018-04-01T05:19:18.111Z,15.87
2018-04-01T05:21:44.743Z,15.87
2018-04-01T05:24:11.204Z,15.96
2018-04-01T05:26:37.699Z,15.96
2018-04-01T05:29:04.211Z,15.94
2018-04-01T05:31:34.001Z,15.92
2018-04-01T05:34:00.589Z,15.91
2018-04-01T05:36:27.118Z,15.83
2018-04-01T05:38:53.497Z,16.01
2018-04-01T05:41:22.974Z,16.09
2018-04-01T05:43:49.428Z,16.19
2018-04-01T05:46:15.922Z,16.18
2018-04-01T05:48:49.513Z,16.26
2018-04-01T05:51:16.382Z,16.43
2018-04-01T05:53:42.833Z,16.43
2018-04-01T05:56:09.365Z,16.65
2018-04-01T05:58:35.931Z,16.65
2018-04-01T06:01:05.861Z,16.78
2018-04-01T06:03:32.379Z,16.90
2018-04-01T06:05:58.904Z,17.12
2018-04-01T06:08:26.370Z,17.14
2018-04-01T06:10:53.066Z,17.11
2018-04-01T06:13:19.516Z,17.13
2018-04-01T06:18:18.003Z,17.08
2018-04-01T06:20:45.462Z,17.08
2018-04-01T06:23:11.902Z,16.94
2018-04-01T06:25:38.436Z,16.88
2018-04-01T06:28:04.901Z,16.86
2018-04-01T06:30:34.791Z,16.86
2018-04-01T06:33:01.310Z,16.65
2018-04-01T06:35:27.787Z,16.74
2018-04-01T06:37:54.226Z,16.67
2018-04-01T06:40:20.773Z,16.57
2018-04-01T06:42:47.222Z,16.56
2018-04-01T06:45:13.720Z,16.57
2018-04-01T06:47:40.283Z,16.57
2018-04-01T06:50:06.774Z,16.47
2018-04-01T06:52:33.213Z,16.60
2018-04-01T06:54:59.744Z,16.53
2018-04-01T06:57:26.280Z,16.57
2018-04-01T06:59:58.925Z,16.45
2018-04-01T07:02:25.475Z,16.52
2018-04-01T07:04:51.953Z,16.55
2018-04-01T07:07:19.241Z,16.55
2018-04-01T07:09:45.782Z,16.69
2018-04-01T07:12:12.554Z,16.60
2018-04-01T07:14:38.993Z,16.63
2018-04-01T07:17:05.492Z,16.75
2018-04-01T07:19:32.011Z,16.72
2018-04-01T07:22:02.530Z,16.80
2018-04-01T07:24:29.495Z,17.00
2018-04-01T07:26:55.958Z,17.18
2018-04-01T07:29:22.444Z,17.32
2018-04-01T07:31:52.784Z,17.52
2018-04-01T07:34:19.260Z,17.54
2018-04-01T07:36:45.740Z,17.82
2018-04-01T07:39:12.210Z,17.76
2018-04-01T07:41:38.768Z,17.83
2018-04-01T07:44:05.881Z,17.95
2018-04-01T07:46:32.407Z,17.87
2018-04-01T07:48:58.958Z,17.94
2018-04-01T07:51:25.531Z,18.09
2018-04-01T07:53:52.114Z,18.10
2018-04-01T07:56:18.592Z,18.22
2018-04-01T07:58:45.057Z,18.37
2018-04-01T08:01:11.771Z,18.80
2018-04-01T08:03:38.226Z,19.46
2018-04-01T08:06:05.458Z,19.28
2018-04-01T08:08:31.902Z,19.43
2018-04-01T08:10:59.640Z,19.19
2018-04-01T08:13:26.105Z,19.34
2018-04-01T08:15:53.699Z,19.48
2018-04-01T08:18:20.228Z,19.56
2018-04-01T08:20:46.826Z,19.77
2018-04-01T08:23:13.342Z,19.84
2018-04-01T08:25:39.885Z,19.92
2018-04-01T08:28:06.281Z,19.73
2018-04-01T08:30:38.195Z,19.86
2018-04-01T08:33:04.688Z,20.27
2018-04-01T08:35:31.136Z,19.78
2018-04-01T08:37:57.690Z,20.08
2018-04-01T08:40:24.231Z,20.12
2018-04-01T08:42:50.720Z,20.25
2018-04-01T08:45:17.263Z,19.94
2018-04-01T08:47:43.849Z,19.76
2018-04-01T08:50:10.706Z,19.49
2018-04-01T08:52:37.229Z,19.32
2018-04-01T08:55:03.714Z,19.35
2018-04-01T08:57:30.238Z,19.57
2018-04-01T08:59:56.956Z,19.43
2018-04-01T09:02:23.447Z,19.60
2018-04-01T09:04:50.820Z,19.44
2018-04-01T09:07:17.462Z,19.63
2018-04-01T09:09:47.480Z,19.62
2018-04-01T09:12:14.026Z,19.51
2018-04-01T09:14:40.609Z,19.50
2018-04-01T09:17:07.154Z,19.43
2018-04-01T09:19:33.774Z,19.31
2018-04-01T09:22:01.062Z,19.21
2018-04-01T09:24:27.575Z,19.06
2018-04-01T09:26:54.114Z,19.01
2018-04-01T09:29:20.674Z,18.69
2018-04-01T09:31:48.264Z,18.18
2018-04-01T09:34:14.795Z,17.81
2018-04-01T09:36:41.242Z,17.27
2018-04-01T09:39:08.149Z,16.80
2018-04-01T09:41:38.251Z,16.90
2018-04-01T09:44:04.727Z,15.32
2018-04-01T09:46:31.195Z,14.29
2018-04-01T09:48:58.669Z,14.06
2018-04-01T09:51:26.400Z,13.81
2018-04-01T09:53:53.633Z,14.17
2018-04-01T09:56:20.099Z,14.47
2018-04-01T09:58:46.710Z,14.36
2018-04-01T10:01:17.033Z,14.85
2018-04-01T10:03:44.609Z,14.37
2018-04-01T10:06:12.270Z,15.29
2018-04-01T10:08:39.622Z,15.70
2018-04-01T10:11:10.737Z,15.56
2018-04-01T10:13:38.105Z,15.52
2018-04-01T10:16:10.284Z,15.61
2018-04-01T10:18:37.627Z,15.24
2018-04-01T10:21:05.071Z,15.18
2018-04-01T10:23:32.431Z,15.13
2018-04-01T10:25:59.619Z,15.24
2018-04-01T10:28:26.870Z,14.95
2018-04-01T10:30:57.954Z,14.33
2018-04-01T10:33:25.187Z,14.34
2018-04-01T10:35:52.309Z,13.94
2018-04-01T10:38:19.607Z,13.83
2018-04-01T10:40:53.497Z,13.73
2018-04-01T10:43:20.756Z,14.05
2018-04-01T10:45:47.979Z,13.63
2018-04-01T10:48:15.439Z,13.72
2018-04-01T10:50:42.873Z,13.81
2018-04-01T10:53:10.277Z,13.52
2018-04-01T10:55:37.022Z,13.89
2018-04-01T10:58:03.567Z,14.31
2018-04-01T11:00:30.602Z,13.85
2018-04-01T11:02:57.194Z,15.10
2018-04-01T11:05:24.311Z,15.03
2018-04-01T11:07:50.842Z,15.22
2018-04-01T11:10:17.620Z,14.79
2018-04-01T11:12:44.167Z,14.42
2018-04-01T11:15:10.642Z,14.34
2018-04-01T11:17:37.249Z,14.14
2018-04-01T11:20:04.095Z,14.34
2018-04-01T11:22:30.746Z,13.77
2018-04-01T11:25:04.003Z,13.29
2018-04-01T11:27:30.593Z,12.86
2018-04-01T11:29:58.236Z,13.03
2018-04-01T11:32:24.753Z,13.02
2018-04-01T11:34:51.318Z,13.06
2018-04-01T11:37:17.887Z,13.13
2018-04-01T11:39:44.483Z,13.04
2018-04-01T11:42:10.914Z,12.91
2018-04-01T11:44:37.527Z,12.97
2018-04-01T11:47:04.077Z,12.96
2018-04-01T11:49:34.104Z,13.07
2018-04-01T11:52:00.723Z,13.47
2018-04-01T11:54:27.302Z,14.39
2018-04-01T11:56:54.097Z,15.64
2018-04-01T11:59:25.217Z,16.14
2018-04-01T12:01:51.703Z,15.70
2018-04-01T12:04:18.329Z,16.04
2018-04-01T12:06:45.600Z,15.79
2018-04-01T12:09:15.802Z,16.30
2018-04-01T12:11:43.447Z,16.59
2018-04-01T12:14:22.113Z,17.02
2018-04-01T12:16:50.999Z,16.98
2018-04-01T12:19:20.650Z,16.16
2018-04-01T12:21:47.342Z,15.94
2018-04-01T12:24:13.796Z,15.74
2018-04-01T12:26:40.614Z,15.87
2018-04-01T12:29:12.567Z,15.39
2018-04-01T12:31:39.139Z,15.10
2018-04-01T12:34:05.754Z,15.21
2018-04-01T12:36:32.323Z,14.81
2018-04-01T12:39:00.646Z,14.42
2018-04-01T12:41:27.270Z,14.66
2018-04-01T12:43:53.719Z,14.64
2018-04-01T12:46:20.834Z,14.23
2018-04-01T12:48:47.377Z,13.89
2018-04-01T12:51:14.062Z,13.78
2018-04-01T12:53:40.570Z,13.66
2018-04-01T12:56:07.163Z,13.42
2018-04-01T12:58:33.710Z,13.35
2018-04-01T13:01:04.526Z,13.45
2018-04-01T13:03:31.030Z,13.17
2018-04-01T13:05:58.346Z,13.41
2018-04-01T13:08:24.819Z,13.19
2018-04-01T13:10:54.407Z,12.98
2018-04-01T13:13:21.182Z,12.92
2018-04-01T13:15:47.738Z,13.03
2018-04-01T13:18:16.021Z,12.84
2018-04-01T13:20:43.575Z,12.56
2018-04-01T13:23:10.118Z,13.36
2018-04-01T13:25:36.729Z,13.51
2018-04-01T13:28:03.267Z,13.05
2018-04-01T13:30:37.707Z,13.34
2018-04-01T13:33:04.216Z,13.52
2018-04-01T13:35:30.729Z,13.92
2018-04-01T13:37:57.292Z,15.13
2018-04-01T13:40:27.822Z,15.28
2018-04-01T13:42:54.378Z,15.29
2018-04-01T13:45:20.943Z,15.35
2018-04-01T13:47:47.499Z,14.76
2018-04-01T13:50:17.742Z,14.37
2018-04-01T13:52:44.427Z,14.60
2018-04-01T13:55:10.951Z,14.39
2018-04-01T13:57:38.348Z,13.76
2018-04-01T14:00:06.546Z,13.65
2018-04-01T14:02:33.231Z,13.59
2018-04-01T14:04:59.706Z,13.19
2018-04-01T14:07:26.262Z,13.14
2018-04-01T14:09:54.031Z,13.14
2018-04-01T14:12:21.488Z,13.14
2018-04-01T14:14:48.103Z,13.31
2018-04-01T14:17:19.585Z,12.84
2018-04-01T14:19:46.363Z,13.13
2018-04-01T14:22:13.075Z,13.19
2018-04-01T14:24:39.538Z,14.23
2018-04-01T14:27:06.062Z,15.91
2018-04-01T14:29:36.327Z,15.58
2018-04-01T14:32:02.865Z,15.63
2018-04-01T14:34:30.188Z,16.58
2018-04-01T14:36:56.619Z,16.48
2018-04-01T14:39:24.498Z,15.57
2018-04-01T14:41:51.741Z,16.37
2018-04-01T14:44:18.268Z,16.83
2018-04-01T14:46:44.905Z,17.21
2018-04-01T14:49:12.550Z,17.05
2018-04-01T14:51:39.831Z,15.60
2018-04-01T14:54:06.389Z,16.49
2018-04-01T14:56:33.732Z,16.15
2018-04-01T14:59:01.198Z,16.02
2018-04-01T15:01:27.780Z,15.98
2018-04-01T15:03:54.202Z,16.90
2018-04-01T15:06:20.760Z,15.40
2018-04-01T15:08:47.330Z,15.84
2018-04-01T15:11:13.912Z,16.09
2018-04-01T15:13:40.510Z,17.60
2018-04-01T15:16:07.237Z,17.12
2018-04-01T15:18:33.817Z,17.45
2018-04-01T15:21:00.269Z,17.29
2018-04-01T15:23:26.777Z,19.20
2018-04-01T15:25:53.210Z,18.83
2018-04-01T15:28:20.503Z,17.44
2018-04-01T15:30:51.159Z,18.94
2018-04-01T15:33:21.354Z,18.14
2018-04-01T15:35:48.126Z,15.48
2018-04-01T15:38:14.865Z,18.01
2018-04-01T15:40:43.618Z,15.55
2018-04-01T15:43:10.208Z,16.46
2018-04-01T15:45:36.757Z,14.45
2018-04-01T15:48:03.365Z,12.98
2018-04-01T15:50:30.103Z,12.74
2018-04-01T15:52:56.634Z,12.36
2018-04-01T15:55:23.122Z,12.51
2018-04-01T15:57:49.687Z,12.43
2018-04-01T16:00:20.145Z,12.07
2018-04-01T16:09:31.360Z,12.02
2018-04-01T16:11:57.874Z,11.95
2018-04-01T16:14:24.392Z,11.92
2018-04-01T16:16:52.719Z,12.09
2018-04-01T16:19:22.946Z,11.83
2018-04-01T16:21:49.505Z,12.20
2018-04-01T16:24:16.834Z,11.81
2018-04-01T16:26:43.381Z,11.67
2018-04-01T16:29:10.200Z,11.84
2018-04-01T16:31:36.767Z,11.85
2018-04-01T16:34:04.100Z,11.94
2018-04-01T16:36:30.926Z,12.01
2018-04-01T16:38:58.533Z,11.94
2018-04-01T16:41:25.106Z,11.76
2018-04-01T16:43:51.546Z,11.77
2018-04-01T16:46:18.130Z,11.89
2018-04-01T16:48:48.325Z,11.50
2018-04-01T16:51:14.807Z,11.42
2018-04-01T16:53:41.295Z,11.36
2018-04-01T16:56:07.862Z,11.00
2018-04-01T16:58:36.117Z,10.62
2018-04-01T17:01:02.640Z,10.93
2018-04-01T17:03:29.196Z,11.21
2018-04-01T17:05:55.918Z,11.38
2018-04-01T17:08:26.486Z,11.45
2018-04-01T17:10:53.071Z,11.21
2018-04-01T17:13:19.567Z,11.32
2018-04-01T17:15:46.023Z,11.26
2018-04-01T17:18:12.632Z,11.32
2018-04-01T17:20:39.078Z,11.40
2018-04-01T17:23:05.574Z,11.44
2018-04-01T17:25:41.779Z,11.50
2018-04-01T17:28:08.208Z,11.38
2018-04-01T17:30:38.421Z,11.36
2018-04-01T17:33:05.641Z,11.38
2018-04-01T17:35:32.226Z,11.51
2018-04-01T17:37:59.498Z,11.52
2018-04-01T17:40:27.208Z,11.42
2018-04-01T17:42:54.062Z,11.47
2018-04-01T17:45:20.565Z,11.49
2018-04-01T17:47:47.127Z,11.56
2018-04-01T17:50:24.294Z,11.56
2018-04-01T17:52:54.307Z,11.53
2018-04-01T17:55:26.379Z,11.57
2018-04-01T17:57:57.060Z,11.58
2018-04-01T18:00:31.376Z,11.65
2018-04-01T18:03:02.429Z,11.52
2018-04-01T18:05:29.145Z,11.57
2018-04-01T18:07:56.299Z,11.69
2018-04-01T18:10:27.686Z,11.69
2018-04-01T18:12:54.327Z,11.67
2018-04-01T18:15:26.009Z,11.71
2018-04-01T18:17:52.540Z,11.82
2018-04-01T18:20:20.064Z,11.82
2018-04-01T18:22:46.762Z,12.02
2018-04-01T18:25:13.477Z,11.93
2018-04-01T18:27:39.971Z,11.93
2018-04-01T18:30:07.551Z,11.82
2018-04-01T18:32:34.165Z,11.94
2018-04-01T18:35:00.652Z,11.79
2018-04-01T18:37:27.906Z,11.92
2018-04-01T18:39:55.716Z,12.07
2018-04-01T18:42:22.174Z,12.06
2018-04-01T18:44:49.223Z,11.96
2018-04-01T18:47:15.800Z,11.98
2018-04-01T18:49:45.914Z,11.79
2018-04-01T18:52:15.369Z,11.88
2018-04-01T18:54:41.271Z,11.90
2018-04-01T18:57:07.863Z,11.98
2018-04-01T18:59:38.172Z,12.02
2018-04-01T19:02:04.690Z,11.90
2018-04-01T19:04:31.200Z,12.11
2018-04-01T19:06:57.744Z,12.04
2018-04-01T19:09:24.412Z,11.94
2018-04-01T19:11:50.982Z,12.07
2018-04-01T19:14:17.393Z,12.17
2018-04-01T19:16:57.468Z,12.28
2018-04-01T19:19:24.880Z,12.27
2018-04-01T19:21:52.259Z,12.23
2018-04-01T19:24:19.531Z,12.27
2018-04-01T19:26:46.855Z,12.13
2018-04-01T19:29:15.256Z,12.14
2018-04-01T19:31:42.567Z,12.15
2018-04-01T19:34:09.823Z,12.18
2018-04-01T19:36:37.014Z,12.06
2018-04-01T19:39:05.218Z,12.13
2018-04-01T19:41:32.556Z,11.88
2018-04-01T19:43:59.838Z,11.97
2018-04-01T19:46:27.556Z,12.08
2018-04-01T19:48:59.406Z,11.99
2018-04-01T19:51:27.082Z,12.02
2018-04-01T19:53:55.245Z,12.10
2018-04-01T19:56:22.530Z,12.10
2018-04-01T19:58:50.874Z,11.99
2018-04-01T20:01:19.922Z,11.96
2018-04-01T20:03:47.974Z,11.96
2018-04-01T20:06:16.103Z,11.94
2018-04-01T20:08:43.320Z,12.02
2018-04-01T20:11:10.690Z,11.94
2018-04-01T20:13:38.269Z,11.99
2018-04-01T20:16:05.594Z,11.92
2018-04-01T20:18:37.041Z,11.95
2018-04-01T20:21:04.308Z,11.92
2018-04-01T20:23:31.634Z,11.90
2018-04-01T20:25:58.872Z,11.86
2018-04-01T20:28:27.143Z,11.77
2018-04-01T20:30:54.478Z,11.72
2018-04-01T20:33:21.734Z,11.71
2018-04-01T20:35:48.873Z,11.56
2018-04-01T20:38:17.210Z,11.73
2018-04-01T20:40:44.571Z,11.47
2018-04-01T20:43:11.810Z,11.49
2018-04-01T20:45:38.995Z,11.46
2018-04-01T20:48:06.277Z,11.37
2018-04-01T20:50:33.843Z,11.26
2018-04-01T20:53:01.223Z,11.21
2018-04-01T20:55:28.383Z,11.25
2018-04-01T20:57:59.159Z,11.21
2018-04-01T21:00:26.708Z,11.10
2018-04-01T21:02:53.947Z,11.07
2018-04-01T21:05:21.239Z,11.09
2018-04-01T21:07:49.586Z,10.97
2018-04-01T21:10:16.836Z,10.98
2018-04-01T21:12:44.106Z,10.98
2018-04-01T21:15:11.210Z,11.02
2018-04-01T21:17:38.406Z,10.83
2018-04-01T21:20:05.562Z,10.88
2018-04-01T21:22:32.902Z,10.79
2018-04-01T21:25:00.165Z,10.76
2018-04-01T21:27:27.339Z,10.73
2018-04-01T21:29:54.923Z,10.67
2018-04-01T21:32:22.309Z,10.67
2018-04-01T21:34:49.529Z,10.61
2018-04-01T21:37:16.919Z,10.51
2018-04-01T21:39:45.178Z,10.53
2018-04-01T21:42:12.491Z,10.49
2018-04-01T21:44:39.763Z,10.42
2018-04-01T21:47:06.970Z,10.44
2018-04-01T21:49:34.314Z,10.39
2018-04-01T21:52:01.557Z,10.33
2018-04-01T21:54:28.734Z,10.36
2018-04-01T21:56:55.850Z,10.35
2018-04-01T21:59:23.354Z,10.44
2018-04-01T22:01:50.621Z,10.43
2018-04-01T22:04:17.846Z,10.36
2018-04-01T22:06:45.099Z,10.24
2018-04-01T22:09:12.447Z,10.29
2018-04-01T22:11:39.617Z,10.25
2018-04-01T22:14:06.838Z,10.14
2018-04-01T22:16:34.261Z,10.07
2018-04-01T22:19:04.555Z,10.06
2018-04-01T22:21:31.773Z,9.98
2018-04-01T22:23:58.954Z,10.24
2018-04-01T22:26:26.239Z,10.05
2018-04-01T22:28:53.639Z,10.24
2018-04-01T22:31:20.961Z,10.47
2018-04-01T22:33:48.111Z,10.44
2018-04-01T22:36:15.367Z,10.32
2018-04-01T22:38:42.611Z,10.31
2018-04-01T22:41:09.898Z,10.33
2018-04-01T22:43:37.184Z,10.24
2018-04-01T22:46:04.465Z,10.24
2018-04-01T22:48:38.674Z,10.15
2018-04-01T22:51:05.842Z,10.09
2018-04-01T22:53:33.149Z,10.09
2018-04-01T22:56:00.502Z,10.10
2018-04-01T22:58:29.539Z,10.03
2018-04-01T23:00:56.724Z,10.09
2018-04-01T23:03:24.005Z,9.96
2018-04-01T23:05:51.226Z,9.90
2018-04-01T23:08:19.590Z,9.93
2018-04-01T23:10:46.909Z,9.78
2018-04-01T23:13:14.213Z,9.83
2018-04-01T23:15:41.405Z,9.78
2018-04-01T23:18:12.391Z,9.67
2018-04-01T23:20:39.797Z,9.70
2018-04-01T23:23:07.466Z,9.63
2018-04-01T23:25:35.526Z,9.64
2018-04-01T23:28:05.189Z,9.61
2018-04-01T23:30:33.230Z,9.61
2018-04-01T23:33:01.807Z,9.62
2018-04-01T23:35:29.874Z,9.62
2018-04-01T23:37:58.337Z,9.55
2018-04-01T23:40:25.642Z,9.52
2018-04-01T23:42:53.069Z,9.50
2018-04-01T23:45:20.225Z,9.49
2018-04-01T23:47:47.685Z,9.47
2018-04-01T23:50:14.954Z,9.39
2018-04-01T23:52:42.466Z,9.45
2018-04-01T23:55:09.747Z,9.40
2018-04-01T23:57:37.106Z,9.40
